Terminal Aerodrome Forecast
Issued by NWS Tallahassee, FL

Home | Current Version | Previous Version | Text Only | Print | Product List | Glossary On
Versions: 1 2 3 4 5 6 7 8 9 10 11 12 13 14 15 16 17 18 19
873
FTUS42 KTAE 190520
TAFTLH
TAF
KTLH 190520Z 1906/2006 00000KT 1/4SM FG OVC001
     FM191600 18005KT P6SM BKN035
     FM200300 16005KT 3SM -SHRA BR BKN007=

USA.gov is the U.S. government's official web portal to all federal, state and local government web resources and services.